Time;durP1;ratioP1;P1;durP2;ratioP2;P2;SDS_P1;SDS_P2;PMS_P1;PMS_P2;Temp;Humidity;BMP_temperature;BMP_pressure;BME280_temperature;BME280_humidity;BME280_pressure;Samples;Min_cycle;Max_cycle;Signal;HPM_P1;HPM_P2
2021/04/15 00:01:35;;;;;;;9.43;3.60;;;4.80;79.00;;;;;;5034847;28;20037;-80
2021/04/15 00:04:01;;;;;;;7.20;3.13;;;4.70;78.60;;;;;;5035366;28;20024;-81
2021/04/15 00:06:29;;;;;;;12.73;6.43;;;4.60;78.40;;;;;;5052309;28;20032;-81
2021/04/15 00:08:56;;;;;;;12.87;6.37;;;4.40;78.60;;;;;;5051994;28;20056;-80
2021/04/15 00:11:27;;;;;;;11.73;6.60;;;4.50;79.30;;;;;;5018301;28;20128;-80
2021/04/15 00:13:55;;;;;;;9.00;4.90;;;4.60;79.50;;;;;;5035347;28;20029;-80
2021/04/15 00:16:21;;;;;;;9.50;5.50;;;4.60;79.10;;;;;;5014719;28;20034;-81
2021/04/15 00:18:47;;;;;;;10.87;6.00;;;4.60;79.60;;;;;;5015103;28;20479;-80
2021/04/15 00:21:14;;;;;;;8.00;5.17;;;4.70;80.30;;;;;;5015246;28;20024;-80
2021/04/15 00:23:40;;;;;;;8.47;4.30;;;4.80;79.90;;;;;;5014671;28;20034;-80
2021/04/15 00:26:08;;;;;;;7.50;4.40;;;4.80;79.70;;;;;;4999564;28;20040;-80
2021/04/15 00:28:34;;;;;;;7.77;4.73;;;4.80;79.50;;;;;;5032053;28;20513;-80
2021/04/15 00:31:01;;;;;;;7.37;4.30;;;4.80;79.70;;;;;;5015221;28;20052;-80
2021/04/15 00:33:27;;;;;;;9.17;4.20;;;4.80;79.60;;;;;;4998226;28;20068;-80
2021/04/15 00:35:53;;;;;;;5.40;3.70;;;4.80;79.70;;;;;;5015600;28;20057;-79
2021/04/15 00:38:21;;;;;;;5.70;2.90;;;4.70;79.30;;;;;;4999310;28;20034;-79
2021/04/15 00:40:48;;;;;;;7.27;3.93;;;4.50;78.70;;;;;;5031027;28;20116;-80
2021/04/15 00:43:17;;;;;;;8.50;4.43;;;4.40;79.40;;;;;;5034673;28;20029;-80
2021/04/15 00:45:44;;;;;;;6.53;4.33;;;4.50;80.20;;;;;;5017905;28;20091;-80
2021/04/15 00:48:28;;;;;;;8.30;3.60;;;4.40;80.10;;;;;;5034758;28;20023;-80
2021/04/15 00:51:11;;;;;;;5.17;2.97;;;4.50;80.50;;;;;;5034535;28;20055;-81
2021/04/15 00:53:46;;;;;;;;;;;4.40;79.90;;;;;;5034117;28;20033;-81
2021/04/15 00:56:12;;;;;;;6.63;3.33;;;4.30;80.40;;;;;;5052452;28;19936;-80
2021/04/15 00:58:39;;;;;;;8.00;3.47;;;4.20;80.50;;;;;;5032552;28;20028;-80
2021/04/15 01:01:05;;;;;;;6.63;3.57;;;4.30;80.70;;;;;;5034487;28;20044;-80
2021/04/15 01:03:32;;;;;;;7.97;3.83;;;4.20;80.70;;;;;;5033647;28;20037;-80
2021/04/15 01:05:58;;;;;;;7.00;3.33;;;4.20;80.80;;;;;;5051052;28;20106;-80
2021/04/15 01:08:24;;;;;;;6.60;3.50;;;4.20;81.10;;;;;;5034186;28;20036;-80
2021/04/15 01:11:21;;;;;;;6.33;3.57;;;4.30;81.10;;;;;;5033645;28;20112;-80
2021/04/15 01:14:19;;;;;;;7.33;3.37;;;4.20;80.60;;;;;;5032817;28;20040;-80
2021/04/15 01:17:05;;;;;;;7.60;3.37;;;4.20;81.00;;;;;;5009922;28;20032;-80
2021/04/15 01:20:28;;;;;;;7.30;3.50;;;4.20;81.40;;;;;;5050458;28;20036;-81
2021/04/15 01:23:15;;;;;;;5.23;3.13;;;4.30;81.50;;;;;;4970264;28;20041;-80
2021/04/15 01:25:59;;;;;;;4.77;2.97;;;4.30;81.10;;;;;;4969971;28;20114;-80
2021/04/15 01:28:57;;;;;;;4.63;3.00;;;4.30;80.80;;;;;;5029871;28;20486;-80
2021/04/15 01:31:40;;;;;;;5.17;2.50;;;4.20;80.70;;;;;;5033766;28;20028;-80
2021/04/15 01:34:22;;;;;;;8.57;3.08;;;4.10;79.90;;;;;;5033482;28;20037;-80
2021/04/15 01:37:07;;;;;;;5.82;2.67;;;3.80;80.20;;;;;;5033033;28;20467;-80
2021/04/15 01:39:42;;;;;;;4.40;2.47;;;3.90;81.60;;;;;;5050899;28;20589;-81
2021/04/15 01:42:16;;;;;;;6.03;2.70;;;3.80;80.50;;;;;;5058503;28;20055;-80
2021/04/15 01:44:56;;;;;;;8.50;3.17;;;3.70;80.40;;;;;;5032753;28;20382;-80
2021/04/15 01:47:31;;;;;;;3.93;2.67;;;3.40;80.50;;;;;;5034016;28;20040;-80
2021/04/15 01:50:03;;;;;;;5.47;3.13;;;3.40;81.10;;;;;;5033166;28;20187;-80
2021/04/15 01:52:31;;;;;;;6.10;2.50;;;3.40;82.00;;;;;;5033468;28;20044;-81
2021/04/15 01:55:11;;;;;;;7.43;2.57;;;3.30;81.20;;;;;;5032958;28;20110;-80
2021/04/15 01:57:52;;;;;;;7.13;2.90;;;3.20;81.40;;;;;;5032332;28;20475;-81
2021/04/15 02:00:26;;;;;;;5.27;2.50;;;3.30;82.50;;;;;;5050397;28;20620;-80
2021/04/15 02:03:05;;;;;;;6.83;2.90;;;3.40;82.80;;;;;;5019644;28;20041;-80
2021/04/15 02:05:39;;;;;;;6.80;3.07;;;3.50;82.00;;;;;;5029874;28;20053;-80
2021/04/15 02:08:14;;;;;;;5.80;2.80;;;3.30;81.80;;;;;;5029862;28;20021;-80
2021/04/15 02:10:46;;;;;;;5.70;3.37;;;3.30;82.20;;;;;;5029040;28;20025;-79
2021/04/15 02:13:13;;;;;;;5.17;3.23;;;3.30;82.90;;;;;;5029374;28;20037;-80
2021/04/15 02:15:50;;;;;;;6.23;2.87;;;3.40;83.10;;;;;;5030102;28;20148;-80
2021/04/15 02:18:21;;;;;;;5.83;3.30;;;3.50;82.80;;;;;;5031186;28;20112;-80
2021/04/15 02:20:50;;;;;;;6.00;2.57;;;3.60;83.00;;;;;;5030295;28;20463;-80
2021/04/15 02:23:30;;;;;;;4.63;2.87;;;3.60;83.30;;;;;;5029520;28;20083;-80
2021/04/15 02:26:05;;;;;;;5.63;2.87;;;3.60;83.20;;;;;;5029063;28;20030;-80
2021/04/15 02:28:47;;;;;;;4.90;2.70;;;3.60;82.70;;;;;;5028912;28;20041;-81
2021/04/15 02:31:38;;;;;;;5.43;2.87;;;3.60;83.10;;;;;;5029343;28;20026;-80
2021/04/15 02:34:10;;;;;;;4.37;2.87;;;3.70;83.20;;;;;;5034763;28;20033;-80
2021/04/15 02:36:41;;;;;;;4.78;2.75;;;3.70;83.00;;;;;;5035355;28;20033;-80
2021/04/15 02:39:31;;;;;;;5.03;2.77;;;3.70;82.70;;;;;;5033425;28;20033;-80
2021/04/15 02:41:59;;;;;;;3.63;2.63;;;3.80;82.80;;;;;;5032923;28;20398;-80
2021/04/15 02:44:31;;;;;;;4.40;2.57;;;3.80;82.80;;;;;;5033253;28;20026;-80
2021/04/15 02:47:08;;;;;;;4.90;3.03;;;3.80;82.70;;;;;;5032981;28;20116;-79
2021/04/15 02:49:35;;;;;;;6.43;3.30;;;3.80;82.60;;;;;;5033560;28;20117;-80
2021/04/15 02:52:08;;;;;;;5.57;2.90;;;3.70;82.50;;;;;;5032438;28;20179;-80
2021/04/15 02:54:40;;;;;;;4.82;2.83;;;3.70;82.50;;;;;;5033797;28;20022;-80
2021/04/15 02:57:17;;;;;;;6.93;2.67;;;3.70;82.40;;;;;;5034307;28;20029;-80
2021/04/15 02:59:55;;;;;;;4.30;2.53;;;3.70;82.50;;;;;;5032817;28;20080;-81
2021/04/15 03:02:26;;;;;;;6.87;2.93;;;3.60;82.30;;;;;;5033500;28;20037;-80
2021/04/15 03:04:57;;;;;;;5.33;2.57;;;3.60;83.00;;;;;;5034439;28;20411;-79
2021/04/15 03:07:27;;;;;;;6.40;3.23;;;3.60;82.90;;;;;;5037805;28;20116;-80
2021/04/15 03:09:54;;;;;;;7.00;3.33;;;3.60;83.10;;;;;;5037470;28;20060;-80
2021/04/15 03:12:32;;;;;;;6.33;3.20;;;3.50;82.40;;;;;;5038799;28;20043;-80
2021/04/15 03:15:07;;;;;;;7.13;3.43;;;3.30;82.00;;;;;;5038330;28;20096;-80
2021/04/15 03:17:36;;;;;;;8.60;3.60;;;3.10;82.10;;;;;;5058370;28;20532;-79
2021/04/15 03:20:09;;;;;;;6.67;4.00;;;3.00;83.10;;;;;;5057652;28;20044;-80
2021/04/15 03:22:39;;;;;;;;;;;3.20;83.90;;;;;;5043018;28;20112;-79
2021/04/15 03:25:05;;;;;;;5.13;3.10;;;3.30;84.30;;;;;;5042976;28;20321;-79
2021/04/15 03:27:45;;;;;;;5.77;3.20;;;3.40;84.10;;;;;;5041921;28;20388;-79
2021/04/15 03:30:12;;;;;;;4.07;3.23;;;3.50;84.00;;;;;;5037130;28;20033;-79
2021/04/15 03:32:46;;;;;;;4.43;3.00;;;3.60;83.80;;;;;;5055733;28;20037;-79
2021/04/15 03:35:23;;;;;;;6.30;3.17;;;3.70;83.70;;;;;;5040459;28;20021;-79
2021/04/15 03:37:54;;;;;;;9.73;3.13;;;3.80;83.40;;;;;;5056474;28;20081;-80
2021/04/15 03:40:24;;;;;;;6.13;3.50;;;3.90;83.10;;;;;;5057348;28;20078;-80
2021/04/15 03:43:04;;;;;;;5.37;3.47;;;3.90;83.10;;;;;;5038952;28;20032;-81
2021/04/15 03:45:48;;;;;;;4.73;3.23;;;3.90;82.90;;;;;;5039074;28;20032;-79
2021/04/15 03:48:20;;;;;;;4.60;2.93;;;4.00;82.60;;;;;;5057509;28;20029;-80
2021/04/15 03:51:10;;;;;;;4.57;3.30;;;4.00;82.30;;;;;;5041032;28;20033;-80
2021/04/15 03:53:47;;;;;;;7.27;3.30;;;4.00;82.40;;;;;;5039737;28;20492;-80
2021/04/15 03:56:24;;;;;;;5.43;3.53;;;4.10;82.30;;;;;;5035682;28;20481;-80
2021/04/15 03:59:09;;;;;;;4.67;3.33;;;4.10;82.20;;;;;;5036628;28;20478;-80
2021/04/15 04:01:49;;;;;;;7.40;4.10;;;4.00;81.70;;;;;;5054347;28;20021;-80
2021/04/15 04:04:38;;;;;;;4.07;2.70;;;3.70;80.80;;;;;;5053257;28;20020;-80
2021/04/15 04:07:10;;;;;;;5.20;2.77;;;3.30;81.50;;;;;;5035390;28;20466;-80
2021/04/15 04:09:41;;;;;;;7.45;3.47;;;3.40;83.10;;;;;;5036265;28;20455;-79
2021/04/15 04:12:32;;;;;;;4.93;2.90;;;3.60;83.50;;;;;;5053149;28;20072;-80
2021/04/15 04:15:08;;;;;;;7.87;3.03;;;3.70;83.30;;;;;;5052342;28;20029;-82
2021/04/15 04:17:43;;;;;;;10.27;2.90;;;3.80;83.20;;;;;;5034881;28;20029;-81
2021/04/15 04:20:10;;;;;;;7.53;3.40;;;4.00;83.00;;;;;;5034789;28;20132;-80
2021/04/15 04:22:44;;;;;;;4.93;3.70;;;4.10;82.90;;;;;;5019163;28;20082;-80
2021/04/15 04:25:13;;;;;;;7.83;3.60;;;3.90;81.40;;;;;;5035005;28;20032;-79
2021/04/15 04:27:49;;;;;;;7.13;3.70;;;3.80;81.10;;;;;;5035433;28;20766;-80
2021/04/15 04:30:23;;;;;;;7.07;4.00;;;3.70;81.40;;;;;;5035646;28;20071;-79
2021/04/15 04:32:58;;;;;;;6.23;3.67;;;3.60;81.40;;;;;;5034663;28;20442;-79
2021/04/15 04:35:29;;;;;;;9.17;4.43;;;3.50;81.40;;;;;;5034430;28;20459;-79
2021/04/15 04:38:00;;;;;;;10.07;4.47;;;3.40;81.70;;;;;;5052417;28;20480;-80
2021/04/15 04:40:55;;;;;;;6.97;4.87;;;3.30;81.90;;;;;;5034662;28;20036;-79
2021/04/15 04:43:32;;;;;;;10.70;5.00;;;3.40;82.70;;;;;;5048285;28;20029;-79
2021/04/15 04:46:04;;;;;;;7.00;4.23;;;3.60;82.70;;;;;;5052097;28;20021;-80
2021/04/15 04:48:34;;;;;;;10.32;4.82;;;3.50;81.90;;;;;;5052394;28;20033;-80
2021/04/15 04:51:05;;;;;;;7.80;5.20;;;3.40;82.30;;;;;;5052152;28;20028;-81
2021/04/15 04:53:34;;;;;;;5.23;4.60;;;3.40;82.70;;;;;;5034133;28;20147;-80
2021/04/15 04:56:13;;;;;;;7.17;4.40;;;3.60;83.40;;;;;;5051942;28;20017;-81
2021/04/15 04:58:40;;;;;;;8.67;4.50;;;3.70;82.50;;;;;;5034606;28;20067;-80
2021/04/15 05:01:06;;;;;;;9.13;4.80;;;3.70;82.30;;;;;;5034055;28;20029;-80
2021/04/15 05:03:33;;;;;;;8.33;4.40;;;3.70;82.10;;;;;;5035714;28;20033;-80
2021/04/15 05:06:17;;;;;;;7.70;4.93;;;3.90;82.50;;;;;;5024082;28;20041;-80
2021/04/15 05:08:46;;;;;;;7.30;4.80;;;4.30;81.90;;;;;;5053232;28;20108;-81
2021/04/15 05:11:12;;;;;;;9.30;5.10;;;4.90;80.50;;;;;;5035406;28;20116;-79
2021/04/15 05:13:39;;;;;;;7.33;4.63;;;5.50;78.20;;;;;;5020494;28;20202;-80
2021/04/15 05:16:05;;;;;;;10.27;4.20;;;5.90;76.30;;;;;;5037312;28;20033;-82
2021/04/15 05:18:31;;;;;;;10.07;5.30;;;6.40;74.50;;;;;;5037744;28;20111;-80
2021/04/15 05:21:15;;;;;;;8.00;5.20;;;7.00;73.10;;;;;;5038318;28;20079;-80
2021/04/15 05:24:04;;;;;;;6.10;4.23;;;7.50;70.80;;;;;;5038605;28;20037;-80
2021/04/15 05:26:34;;;;;;;7.90;3.93;;;8.20;69.30;;;;;;5037943;28;20025;-80
2021/04/15 05:29:01;;;;;;;7.47;3.60;;;8.80;67.70;;;;;;5055313;28;20079;-79
2021/04/15 05:31:29;;;;;;;5.93;3.57;;;9.30;65.80;;;;;;5021906;28;20189;-79
2021/04/15 05:33:58;;;;;;;8.40;3.47;;;9.80;64.70;;;;;;5036269;28;20112;-78
2021/04/15 05:36:30;;;;;;;6.27;2.90;;;10.70;63.80;;;;;;5035056;28;20029;-79
2021/04/15 05:39:00;;;;;;;5.68;3.13;;;11.50;60.40;;;;;;5053667;28;20601;-79
2021/04/15 05:41:33;;;;;;;8.30;3.40;;;11.90;58.70;;;;;;5034127;28;20495;-79
2021/04/15 05:44:04;;;;;;;5.53;3.10;;;12.60;57.20;;;;;;5036459;28;20029;-80
2021/04/15 05:46:51;;;;;;;5.40;3.37;;;13.20;55.80;;;;;;5036108;28;20112;-80
2021/04/15 05:49:43;;;;;;;6.57;4.33;;;14.00;54.50;;;;;;5039087;28;20064;-79
2021/04/15 05:52:24;;;;;;;4.57;2.87;;;14.60;51.50;;;;;;5044302;28;20045;-82
2021/04/15 05:54:53;;;;;;;4.80;2.07;;;14.20;52.80;;;;;;5035782;28;20067;-81
2021/04/15 05:57:26;;;;;;;5.63;2.63;;;13.60;54.00;;;;;;5071933;28;20116;-81
2021/04/15 06:00:08;;;;;;;3.63;2.20;;;12.70;54.70;;;;;;5048566;28;20021;-80
2021/04/15 06:02:44;;;;;;;7.63;3.43;;;12.80;56.90;;;;;;5036579;28;20339;-78
2021/04/15 06:05:37;;;;;;;6.13;3.80;;;13.00;56.40;;;;;;5051369;28;20534;-78
2021/04/15 06:08:06;;;;;;;5.20;3.47;;;12.60;57.30;;;;;;5054476;28;20020;-79
2021/04/15 06:10:34;;;;;;;3.87;2.77;;;12.10;57.80;;;;;;5034480;28;20032;-78
2021/04/15 06:13:04;;;;;;;7.00;4.07;;;11.80;59.10;;;;;;5043305;28;20548;-79
2021/04/15 06:15:39;;;;;;;7.73;5.10;;;11.50;60.40;;;;;;5040307;28;20462;-79
2021/04/15 06:18:19;;;;;;;9.57;4.53;;;11.60;60.40;;;;;;5043733;28;20020;-78
2021/04/15 06:20:58;;;;;;;5.93;3.10;;;11.60;60.60;;;;;;5058728;28;20029;-78
2021/04/15 06:23:32;;;;;;;10.23;5.93;;;11.50;60.40;;;;;;5031934;28;20067;-78
2021/04/15 06:25:58;;;;;;;4.67;3.23;;;11.30;61.10;;;;;;5050927;28;20017;-79
2021/04/15 06:28:29;;;;;;;7.57;3.93;;;11.00;60.30;;;;;;5031884;28;20040;-78
2021/04/15 06:31:19;;;;;;;6.00;4.23;;;10.60;61.40;;;;;;5033086;28;20043;-77
2021/04/15 06:33:45;;;;;;;17.17;8.27;;;10.60;61.80;;;;;;5050708;28;20025;-78
2021/04/15 06:36:35;;;;;;;12.27;8.43;;;10.80;63.00;;;;;;5050789;28;20108;-79
2021/04/15 06:39:17;;;;;;;16.93;10.90;;;11.40;62.00;;;;;;5050459;28;20028;-77
2021/04/15 06:42:08;;;;;;;5.17;2.00;;;11.70;61.10;;;;;;5036834;28;20053;-78
2021/04/15 06:45:18;;;;;;;5.30;2.10;;;11.90;57.50;;;;;;5040541;28;20025;-79
2021/04/15 06:48:07;;;;;;;4.53;3.00;;;12.40;56.40;;;;;;5021276;28;20039;-79
2021/04/15 06:51:10;;;;;;;11.60;7.43;;;13.30;55.50;;;;;;5031838;28;20471;-79
2021/04/15 06:53:51;;;;;;;13.63;9.00;;;13.10;54.50;;;;;;5031703;28;20049;-79
2021/04/15 06:56:35;;;;;;;7.63;4.13;;;14.00;54.50;;;;;;5032855;28;20057;-78
2021/04/15 06:59:23;;;;;;;3.65;2.63;;;15.60;49.60;;;;;;5032742;28;20510;-77
2021/04/15 07:02:07;;;;;;;8.63;4.70;;;15.90;47.70;;;;;;5032485;28;20573;-79
2021/04/15 07:04:49;;;;;;;6.93;3.90;;;15.40;47.30;;;;;;5049415;28;20174;-80
2021/04/15 07:07:49;;;;;;;11.32;4.40;;;14.10;49.50;;;;;;5050668;28;20053;-76
2021/04/15 07:10:29;;;;;;;21.88;9.73;;;13.10;53.00;;;;;;5018490;28;20032;-78
2021/04/15 07:13:16;;;;;;;7.70;2.83;;;12.80;56.40;;;;;;5032656;28;20037;-78
2021/04/15 07:15:57;;;;;;;22.93;10.20;;;12.80;54.70;;;;;;5040750;28;20123;-79
2021/04/15 07:18:59;;;;;;;5.93;2.53;;;12.60;58.50;;;;;;5063962;28;20024;-81
2021/04/15 07:21:25;;;;;;;9.93;5.73;;;12.20;56.00;;;;;;5015815;28;20462;-81
2021/04/15 07:24:05;;;;;;;6.30;2.57;;;11.60;57.50;;;;;;5033852;28;20109;-78
2021/04/15 07:26:45;;;;;;;7.17;4.80;;;11.50;57.40;;;;;;5015414;28;20068;-78
2021/04/15 07:29:23;;;;;;;13.07;7.83;;;11.50;59.00;;;;;;5016069;28;20025;-79
2021/04/15 07:32:16;;;;;;;6.93;3.57;;;11.70;60.20;;;;;;5057354;28;20029;-78
2021/04/15 07:35:02;;;;;;;13.15;6.80;;;11.90;58.10;;;;;;5015131;28;20738;-78
2021/04/15 07:37:30;;;;;;;10.73;6.17;;;11.90;59.30;;;;;;5016725;28;20082;-81
2021/04/15 07:40:17;;;;;;;6.90;4.77;;;12.40;59.20;;;;;;5049437;28;20024;-78
2021/04/15 07:42:49;;;;;;;11.23;5.97;;;12.50;57.20;;;;;;5051710;28;20048;-77
2021/04/15 07:45:33;;;;;;;15.33;10.43;;;12.20;57.70;;;;;;5048272;28;20028;-79
2021/04/15 07:48:53;;;;;;;11.50;5.80;;;12.10;59.20;;;;;;5055442;28;20032;-79
2021/04/15 07:51:43;;;;;;;5.77;2.80;;;11.90;58.30;;;;;;4955902;28;20612;-78
2021/04/15 07:54:29;;;;;;;8.53;4.13;;;11.00;59.60;;;;;;5068393;28;20158;-77
2021/04/15 07:57:23;;;;;;;8.83;2.90;;;10.40;61.40;;;;;;5054941;28;20028;-79
2021/04/15 08:00:21;;;;;;;6.33;3.10;;;10.50;61.40;;;;;;5054519;28;20451;-78
2021/04/15 08:03:19;;;;;;;6.63;3.87;;;10.10;62.70;;;;;;5072582;28;20039;-79
2021/04/15 08:06:12;;;;;;;6.70;3.80;;;10.40;63.30;;;;;;5053795;28;20043;-79
2021/04/15 08:09:16;;;;;;;6.47;1.88;;;10.80;62.60;;;;;;5058678;28;20478;-79
2021/04/15 08:11:50;;;;;;;4.15;2.63;;;10.50;61.40;;;;;;5033038;28;20024;-79
2021/04/15 08:14:33;;;;;;;5.87;1.50;;;10.70;61.80;;;;;;5054185;28;20538;-80
2021/04/15 08:17:05;;;;;;;;;;;10.40;60.30;;;;;;5051245;28;20031;-80
2021/04/15 08:20:00;;;;;;;5.20;1.57;;;10.20;61.70;;;;;;5034373;28;19905;-80
2021/04/15 08:23:03;;;;;;;5.83;2.63;;;10.00;61.20;;;;;;5034808;28;20086;-78
2021/04/15 08:26:06;;;;;;;5.23;1.97;;;10.30;62.60;;;;;;5049792;28;20040;-80
2021/04/15 08:29:03;;;;;;;7.50;3.70;;;10.30;60.00;;;;;;5044955;28;20033;-80
2021/04/15 08:31:50;;;;;;;8.27;4.43;;;9.90;61.80;;;;;;5023347;28;20028;-81
2021/04/15 08:34:28;;;;;;;11.90;4.53;;;10.60;61.80;;;;;;5034623;28;20044;-81
2021/04/15 08:37:05;;;;;;;9.47;3.77;;;11.20;60.50;;;;;;5042576;28;20048;-81
2021/04/15 08:39:42;;;;;;;5.10;1.60;;;11.50;58.50;;;;;;5072288;28;20381;-80
2021/04/15 08:42:16;;;;;;;6.63;3.53;;;11.80;56.30;;;;;;5040945;28;20028;-81
2021/04/15 08:44:58;;;;;;;4.87;2.23;;;11.50;56.70;;;;;;5051328;28;20099;-80
2021/04/15 08:47:35;;;;;;;3.97;2.60;;;11.60;58.20;;;;;;5034251;28;20029;-80
2021/04/15 08:50:35;;;;;;;6.10;3.50;;;11.80;58.90;;;;;;5051550;28;20113;-80
2021/04/15 08:53:23;;;;;;;4.70;2.67;;;12.20;59.10;;;;;;5033371;28;20032;-81
2021/04/15 08:56:12;;;;;;;5.60;2.30;;;12.60;57.70;;;;;;5033601;28;20029;-82
2021/04/15 08:59:20;;;;;;;4.27;1.70;;;12.90;56.30;;;;;;5037432;28;20566;-80
2021/04/15 09:02:26;;;;;;;4.83;2.10;;;13.00;55.60;;;;;;5039408;28;20079;-81
2021/04/15 09:05:07;;;;;;;5.80;1.90;;;13.60;53.90;;;;;;5034219;28;20079;-81
2021/04/15 09:07:37;;;;;;;4.40;1.35;;;14.20;52.90;;;;;;5036979;28;20051;-80
2021/04/15 09:10:03;;;;;;;4.40;1.38;;;14.40;49.30;;;;;;5054944;28;20020;-81
2021/04/15 09:12:55;;;;;;;2.83;0.90;;;14.10;50.50;;;;;;5040382;28;20098;-80
2021/04/15 09:15:38;;;;;;;2.42;0.85;;;13.60;49.40;;;;;;5059246;28;20108;-80
2021/04/15 09:18:09;;;;;;;6.13;1.50;;;12.90;51.20;;;;;;5038908;28;20035;-80
2021/04/15 09:20:38;;;;;;;3.30;1.10;;;12.80;52.40;;;;;;5034387;28;20021;-80
2021/04/15 09:23:36;;;;;;;3.27;1.50;;;12.90;52.50;;;;;;5051546;28;20063;-81
2021/04/15 09:26:06;;;;;;;3.87;0.83;;;12.90;52.30;;;;;;5015814;28;20052;-80
2021/04/15 09:28:37;;;;;;;2.67;1.20;;;12.80;49.40;;;;;;5034007;28;20086;-81
2021/04/15 09:31:07;;;;;;;5.47;1.60;;;12.90;49.70;;;;;;5020614;28;20056;-82
2021/04/15 09:33:54;;;;;;;3.03;0.70;;;13.20;47.60;;;;;;5048794;28;20540;-84
2021/04/15 09:36:43;;;;;;;7.93;3.27;;;13.70;47.20;;;;;;5057174;28;20132;-81
2021/04/15 09:39:17;;;;;;;22.33;8.13;;;13.80;47.20;;;;;;5000093;28;20275;-80
2021/04/15 09:41:55;;;;;;;16.90;6.90;;;13.60;44.40;;;;;;5050044;28;20033;-81
2021/04/15 09:44:48;;;;;;;5.07;2.03;;;13.10;46.40;;;;;;5033303;28;20039;-82
2021/04/15 09:47:14;;;;;;;;;;;13.10;46.60;;;;;;5033440;28;20056;-83
2021/04/15 09:49:42;;;;;;;5.33;1.83;;;12.60;47.50;;;;;;5033002;28;20699;-82
2021/04/15 09:52:25;;;;;;;4.50;2.30;;;12.10;49.90;;;;;;5032070;28;20036;-81
2021/04/15 09:55:28;;;;;;;2.28;1.00;;;11.90;50.90;;;;;;5043098;28;20505;-83
2021/04/15 09:58:15;;;;;;;3.92;0.68;;;12.40;48.40;;;;;;5050131;28;20029;-83
2021/04/15 10:00:46;;;;;;;2.50;0.83;;;12.20;48.10;;;;;;5025738;28;20053;-82
2021/04/15 10:03:46;;;;;;;2.83;1.00;;;12.00;48.50;;;;;;5031619;28;20071;-82
2021/04/15 10:06:31;;;;;;;3.97;1.00;;;12.40;48.90;;;;;;4986851;28;20037;-81
2021/04/15 10:09:05;;;;;;;2.23;1.00;;;13.30;47.10;;;;;;5026854;28;20047;-83
2021/04/15 10:11:49;;;;;;;3.10;0.50;;;14.20;46.10;;;;;;5029048;28;20033;-82
2021/04/15 10:14:49;;;;;;;3.08;0.93;;;14.90;43.80;;;;;;5027827;28;20037;-83
2021/04/15 10:17:56;;;;;;;2.33;0.60;;;15.10;43.60;;;;;;5028946;28;20025;-82
2021/04/15 10:20:53;;;;;;;2.75;0.52;;;15.50;43.50;;;;;;5007882;28;20036;-81
2021/04/15 10:23:37;;;;;;;2.13;0.63;;;15.10;41.80;;;;;;5027515;28;20064;-83
2021/04/15 10:26:38;;;;;;;4.43;1.08;;;14.20;44.10;;;;;;5022829;28;20428;-82
2021/04/15 10:29:34;;;;;;;2.38;0.85;;;13.90;46.90;;;;;;5028001;28;20725;-83
2021/04/15 10:32:24;;;;;;;1.33;0.32;;;14.00;46.80;;;;;;5026683;28;20037;-84
2021/04/15 10:35:08;;;;;;;3.40;0.60;;;13.50;44.30;;;;;;5026026;28;20057;-83
2021/04/15 10:37:58;;;;;;;2.03;0.50;;;12.40;45.60;;;;;;5017833;28;20037;-81
2021/04/15 10:41:12;;;;;;;2.23;0.57;;;12.00;47.20;;;;;;5023072;28;20387;-83
2021/04/15 10:44:04;;;;;;;1.88;0.40;;;11.50;47.00;;;;;;5015299;28;20042;-83
2021/04/15 10:46:29;;;;;;;2.23;1.00;;;11.40;47.50;;;;;;5030454;28;20037;-84
2021/04/15 10:49:02;;;;;;;2.63;0.50;;;11.10;48.50;;;;;;5027750;28;20029;-82
2021/04/15 10:51:43;;;;;;;5.22;1.10;;;10.90;48.20;;;;;;5027350;28;20025;-83
2021/04/15 10:54:40;;;;;;;2.93;0.90;;;10.60;49.90;;;;;;5030006;28;20121;-82
2021/04/15 10:57:15;;;;;;;4.27;1.20;;;11.00;50.40;;;;;;5025680;28;20125;-83
2021/04/15 10:59:43;;;;;;;2.93;0.93;;;11.40;50.80;;;;;;5024230;28;20041;-85
2021/04/15 11:02:23;;;;;;;2.80;0.87;;;12.00;48.90;;;;;;5031101;28;20037;-84
2021/04/15 11:04:51;;;;;;;4.93;0.70;;;12.90;47.20;;;;;;5034293;28;20048;-84
2021/04/15 11:07:18;;;;;;;3.03;0.80;;;13.10;45.40;;;;;;5034833;28;20064;-83
2021/04/15 11:09:47;;;;;;;3.27;0.80;;;12.90;44.80;;;;;;5036562;28;20413;-82
2021/04/15 11:12:15;;;;;;;3.27;0.90;;;12.90;46.30;;;;;;5033682;28;20017;-82
2021/04/15 11:14:44;;;;;;;5.33;2.87;;;13.70;45.10;;;;;;5035591;28;20064;-84
2021/04/15 11:17:42;;;;;;;7.32;3.05;;;14.50;44.90;;;;;;5033385;28;20021;-83
2021/04/15 11:20:08;;;;;;;5.18;1.10;;;15.20;42.60;;;;;;5037772;28;20028;-83
2021/04/15 11:22:35;;;;;;;3.50;1.83;;;14.70;39.70;;;;;;5034071;28;20029;-85
2021/04/15 11:25:34;;;;;;;3.97;1.13;;;14.40;41.90;;;;;;5023895;28;20111;-85
2021/04/15 11:28:08;;;;;;;3.05;1.33;;;14.60;42.00;;;;;;4997659;28;20037;-85
2021/04/15 11:30:45;;;;;;;2.97;1.10;;;14.50;41.80;;;;;;5018767;28;20390;-84
2021/04/15 11:33:29;;;;;;;5.80;1.60;;;14.50;41.40;;;;;;5047718;28;20556;-85
2021/04/15 11:36:06;;;;;;;3.22;1.30;;;14.10;43.30;;;;;;5059430;28;20477;-84
2021/04/15 11:38:32;;;;;;;3.15;1.00;;;14.20;42.40;;;;;;5040421;28;20057;-83
2021/04/15 11:40:58;;;;;;;4.60;1.27;;;13.90;43.10;;;;;;5017769;28;20477;-84
2021/04/15 11:43:26;;;;;;;3.47;1.20;;;13.70;42.90;;;;;;5035100;28;20148;-84
2021/04/15 11:45:54;;;;;;;4.32;1.42;;;13.50;42.70;;;;;;5056779;28;20098;-84
2021/04/15 11:48:24;;;;;;;4.23;1.00;;;13.80;43.20;;;;;;5034423;28;20033;-84
2021/04/15 11:51:13;;;;;;;2.92;0.90;;;14.10;40.70;;;;;;5034196;28;20061;-84
2021/04/15 11:53:49;;;;;;;3.25;1.45;;;14.00;39.50;;;;;;5053551;28;20074;-83
2021/04/15 11:56:24;;;;;;;4.13;1.90;;;13.90;40.50;;;;;;5034253;28;20036;-83
2021/04/15 11:58:51;;;;;;;4.00;1.70;;;14.20;41.50;;;;;;5033624;28;20127;-83
2021/04/15 12:01:30;;;;;;;4.57;2.70;;;14.60;39.10;;;;;;5034558;28;20122;-83
2021/04/15 12:04:01;;;;;;;7.45;4.35;;;14.40;40.00;;;;;;5032958;28;20033;-83
2021/04/15 12:06:40;;;;;;;5.32;2.50;;;14.60;41.40;;;;;;5034300;28;20422;-83
2021/04/15 12:09:11;;;;;;;4.80;1.80;;;14.60;40.80;;;;;;5052470;28;20037;-82
2021/04/15 12:11:50;;;;;;;4.20;2.97;;;14.70;41.20;;;;;;5036353;28;20041;-83
2021/04/15 12:14:16;;;;;;;5.03;2.70;;;14.60;41.10;;;;;;5050470;28;20116;-83
2021/04/15 12:16:45;;;;;;;5.25;2.38;;;14.40;41.30;;;;;;5035463;28;20097;-84
2021/04/15 12:19:20;;;;;;;4.63;2.80;;;14.20;41.20;;;;;;5033483;28;20398;-84
2021/04/15 12:21:58;;;;;;;4.25;1.70;;;14.20;42.10;;;;;;5034136;28;20040;-83
2021/04/15 12:24:36;;;;;;;11.65;8.13;;;14.20;40.60;;;;;;5051480;28;20115;-80
2021/04/15 12:27:13;;;;;;;6.88;4.35;;;13.90;40.70;;;;;;5035062;28;20064;-83
2021/04/15 12:29:41;;;;;;;6.60;4.72;;;13.90;41.20;;;;;;5038529;28;20041;-81
2021/04/15 12:32:23;;;;;;;17.13;11.00;;;14.10;40.70;;;;;;5035435;28;20258;-83
2021/04/15 12:35:16;;;;;;;14.15;9.50;;;14.30;41.00;;;;;;5034732;28;20116;-84
2021/04/15 12:37:46;;;;;;;10.48;7.35;;;14.80;40.50;;;;;;5034723;28;20035;-83
2021/04/15 12:40:27;;;;;;;10.63;7.32;;;15.30;38.70;;;;;;5050385;28;20039;-83
2021/04/15 12:43:00;;;;;;;18.20;11.20;;;15.70;39.20;;;;;;5034820;28;20032;-83
2021/04/15 12:45:51;;;;;;;;;;;16.00;36.70;;;;;;5051354;28;20402;-83
2021/04/15 12:48:30;;;;;;;5.07;3.45;;;15.90;31.90;;;;;;5051378;28;19916;-83
2021/04/15 12:50:57;;;;;;;6.60;4.18;;;15.90;34.60;;;;;;5028363;28;20028;-83
2021/04/15 12:53:23;;;;;;;7.15;4.72;;;15.80;36.10;;;;;;5050642;28;20037;-82
2021/04/15 12:55:50;;;;;;;7.53;5.63;;;16.00;36.90;;;;;;5014629;28;20080;-83
2021/04/15 12:58:18;;;;;;;10.38;6.72;;;16.10;36.30;;;;;;5026254;28;20067;-83
2021/04/15 13:00:47;;;;;;;9.02;6.75;;;16.50;36.90;;;;;;5022422;28;20033;-81
2021/04/15 13:03:27;;;;;;;12.57;5.30;;;16.60;36.50;;;;;;5052570;28;20149;-83
2021/04/15 13:05:57;;;;;;;4.80;2.90;;;16.60;35.50;;;;;;5035750;28;20049;-83
2021/04/15 13:08:34;;;;;;;6.53;3.53;;;16.30;36.40;;;;;;5037074;28;20089;-83
2021/04/15 13:11:15;;;;;;;8.30;5.90;;;16.30;37.10;;;;;;5040119;28;20028;-83
2021/04/15 13:13:43;;;;;;;6.25;4.30;;;16.10;37.10;;;;;;5043226;28;20037;-82
2021/04/15 13:16:44;;;;;;;7.30;3.80;;;15.90;36.30;;;;;;5062967;28;20025;-82
2021/04/15 13:19:20;;;;;;;5.40;3.28;;;15.60;37.00;;;;;;5060660;28;20075;-83
2021/04/15 13:22:03;;;;;;;8.48;5.45;;;15.40;37.20;;;;;;5045478;28;20028;-83
2021/04/15 13:25:06;;;;;;;18.80;12.63;;;15.20;37.60;;;;;;5044935;28;20056;-82
2021/04/15 13:27:44;;;;;;;17.58;12.02;;;15.20;38.80;;;;;;5039227;28;20498;-82
2021/04/15 13:30:41;;;;;;;13.27;8.85;;;15.40;37.80;;;;;;5057771;28;20076;-82
2021/04/15 13:33:18;;;;;;;8.02;5.15;;;14.90;35.20;;;;;;5032783;28;20040;-81
2021/04/15 13:35:59;;;;;;;10.23;4.63;;;14.70;35.80;;;;;;5038609;28;20024;-81
2021/04/15 13:38:46;;;;;;;4.72;2.08;;;14.70;34.50;;;;;;5041472;28;20040;-84
2021/04/15 13:44:32;;;;;;;12.00;7.70;;;14.70;36.80;;;;;;5066459;28;20874;-83
2021/04/15 13:46:58;;;;;;;6.63;3.88;;;15.30;37.00;;;;;;5060792;28;20035;-82
2021/04/15 13:49:26;;;;;;;3.65;1.40;;;15.50;35.10;;;;;;5058869;28;20114;-84
2021/04/15 13:52:34;;;;;;;4.13;1.25;;;15.20;33.60;;;;;;5060391;28;20025;-83